sensor_id;sensor_type;location;lat;lon;timestamp;temperature;humidity
74364;DHT22;62797;49.740;10.154;2023-05-10T00:01:22;14.90;91.20
74364;DHT22;62797;49.740;10.154;2023-05-10T00:03:48;14.90;91.30
74364;DHT22;62797;49.740;10.154;2023-05-10T00:06:14;14.90;91.00
74364;DHT22;62797;49.740;10.154;2023-05-10T00:08:40;14.80;90.90
74364;DHT22;62797;49.740;10.154;2023-05-10T00:11:06;14.80;90.60
74364;DHT22;62797;49.740;10.154;2023-05-10T00:13:33;14.70;91.00
74364;DHT22;62797;49.740;10.154;2023-05-10T00:15:58;14.70;91.20
74364;DHT22;62797;49.740;10.154;2023-05-10T00:18:24;14.70;90.90
74364;DHT22;62797;49.740;10.154;2023-05-10T00:20:50;14.70;92.00
74364;DHT22;62797;49.740;10.154;2023-05-10T00:23:16;14.70;90.80
74364;DHT22;62797;49.740;10.154;2023-05-10T00:25:41;14.70;91.10
74364;DHT22;62797;49.740;10.154;2023-05-10T00:28:07;14.70;91.00
74364;DHT22;62797;49.740;10.154;2023-05-10T00:30:33;14.70;91.10
74364;DHT22;62797;49.740;10.154;2023-05-10T00:32:58;14.70;90.50
74364;DHT22;62797;49.740;10.154;2023-05-10T00:35:25;14.60;90.60
74364;DHT22;62797;49.740;10.154;2023-05-10T00:37:51;14.50;90.80
74364;DHT22;62797;49.740;10.154;2023-05-10T00:40:17;14.50;91.30
74364;DHT22;62797;49.740;10.154;2023-05-10T00:42:47;14.50;91.20
74364;DHT22;62797;49.740;10.154;2023-05-10T00:45:15;14.50;91.20
74364;DHT22;62797;49.740;10.154;2023-05-10T00:47:41;14.60;91.20
74364;DHT22;62797;49.740;10.154;2023-05-10T00:50:07;14.50;90.80
74364;DHT22;62797;49.740;10.154;2023-05-10T00:52:34;14.50;90.40
74364;DHT22;62797;49.740;10.154;2023-05-10T00:55:00;14.40;89.90
74364;DHT22;62797;49.740;10.154;2023-05-10T00:57:25;14.40;89.50
74364;DHT22;62797;49.740;10.154;2023-05-10T00:59:51;14.40;90.20
74364;DHT22;62797;49.740;10.154;2023-05-10T01:02:17;14.40;90.40
74364;DHT22;62797;49.740;10.154;2023-05-10T01:04:43;14.30;90.70
74364;DHT22;62797;49.740;10.154;2023-05-10T01:07:08;14.40;91.10
74364;DHT22;62797;49.740;10.154;2023-05-10T01:09:34;14.30;91.10
74364;DHT22;62797;49.740;10.154;2023-05-10T01:12:00;14.30;91.00
74364;DHT22;62797;49.740;10.154;2023-05-10T01:14:28;14.40;91.20
74364;DHT22;62797;49.740;10.154;2023-05-10T01:16:54;14.30;91.40
74364;DHT22;62797;49.740;10.154;2023-05-10T01:19:26;14.30;91.20
74364;DHT22;62797;49.740;10.154;2023-05-10T01:38:47;14.20;90.80
74364;DHT22;62797;49.740;10.154;2023-05-10T01:46:53;14.20;91.20
74364;DHT22;62797;49.740;10.154;2023-05-10T01:49:25;14.20;91.20
74364;DHT22;62797;49.740;10.154;2023-05-10T01:51:54;14.20;91.40
74364;DHT22;62797;49.740;10.154;2023-05-10T01:54:23;14.10;91.20
74364;DHT22;62797;49.740;10.154;2023-05-10T01:56:54;14.20;91.00
74364;DHT22;62797;49.740;10.154;2023-05-10T01:59:22;14.20;90.60
74364;DHT22;62797;49.740;10.154;2023-05-10T02:01:49;14.10;90.80
74364;DHT22;62797;49.740;10.154;2023-05-10T02:04:20;14.10;91.60
74364;DHT22;62797;49.740;10.154;2023-05-10T02:06:47;14.10;90.80
74364;DHT22;62797;49.740;10.154;2023-05-10T02:09:14;14.10;90.50
74364;DHT22;62797;49.740;10.154;2023-05-10T02:11:43;14.00;90.40
74364;DHT22;62797;49.740;10.154;2023-05-10T02:14:11;14.00;90.50
74364;DHT22;62797;49.740;10.154;2023-05-10T02:16:38;13.90;89.90
74364;DHT22;62797;49.740;10.154;2023-05-10T02:19:05;14.00;90.30
74364;DHT22;62797;49.740;10.154;2023-05-10T02:21:32;13.90;89.30
74364;DHT22;62797;49.740;10.154;2023-05-10T02:24:00;13.90;90.00
74364;DHT22;62797;49.740;10.154;2023-05-10T02:26:28;14.00;89.70
74364;DHT22;62797;49.740;10.154;2023-05-10T02:28:56;13.90;89.40
74364;DHT22;62797;49.740;10.154;2023-05-10T02:31:23;13.90;88.10
74364;DHT22;62797;49.740;10.154;2023-05-10T02:33:50;13.90;88.20
74364;DHT22;62797;49.740;10.154;2023-05-10T02:36:17;13.80;88.70
74364;DHT22;62797;49.740;10.154;2023-05-10T02:38:45;13.80;88.50
74364;DHT22;62797;49.740;10.154;2023-05-10T02:41:12;13.80;87.40
74364;DHT22;62797;49.740;10.154;2023-05-10T02:43:40;13.80;87.70
74364;DHT22;62797;49.740;10.154;2023-05-10T02:46:07;13.70;87.40
74364;DHT22;62797;49.740;10.154;2023-05-10T02:48:34;13.70;88.30
74364;DHT22;62797;49.740;10.154;2023-05-10T02:51:04;13.60;88.10
74364;DHT22;62797;49.740;10.154;2023-05-10T02:53:32;13.60;88.30
74364;DHT22;62797;49.740;10.154;2023-05-10T02:56:01;13.60;88.80
74364;DHT22;62797;49.740;10.154;2023-05-10T02:58:29;13.60;87.90
74364;DHT22;62797;49.740;10.154;2023-05-10T03:00:55;13.60;88.90
74364;DHT22;62797;49.740;10.154;2023-05-10T03:03:20;13.60;88.10
74364;DHT22;62797;49.740;10.154;2023-05-10T03:05:49;13.50;88.40
74364;DHT22;62797;49.740;10.154;2023-05-10T03:08:14;13.50;86.60
74364;DHT22;62797;49.740;10.154;2023-05-10T03:13:36;13.40;87.20
74364;DHT22;62797;49.740;10.154;2023-05-10T03:16:12;13.40;88.10
74364;DHT22;62797;49.740;10.154;2023-05-10T03:19:30;13.40;87.80
74364;DHT22;62797;49.740;10.154;2023-05-10T03:21:59;13.40;87.80
74364;DHT22;62797;49.740;10.154;2023-05-10T03:24:31;13.40;88.10
74364;DHT22;62797;49.740;10.154;2023-05-10T03:27:00;13.30;88.40
74364;DHT22;62797;49.740;10.154;2023-05-10T03:29:29;13.40;88.50
74364;DHT22;62797;49.740;10.154;2023-05-10T03:31:58;13.30;85.70
74364;DHT22;62797;49.740;10.154;2023-05-10T03:34:25;13.20;85.50
74364;DHT22;62797;49.740;10.154;2023-05-10T03:36:52;13.10;86.20
74364;DHT22;62797;49.740;10.154;2023-05-10T03:39:17;13.10;86.20
74364;DHT22;62797;49.740;10.154;2023-05-10T03:41:49;13.10;84.30
74364;DHT22;62797;49.740;10.154;2023-05-10T03:44:15;13.00;83.70
74364;DHT22;62797;49.740;10.154;2023-05-10T03:46:40;12.90;84.60
74364;DHT22;62797;49.740;10.154;2023-05-10T03:49:06;12.90;85.50
74364;DHT22;62797;49.740;10.154;2023-05-10T03:51:31;12.90;86.00
74364;DHT22;62797;49.740;10.154;2023-05-10T03:53:58;12.90;86.40
74364;DHT22;62797;49.740;10.154;2023-05-10T03:56:23;12.90;85.80
74364;DHT22;62797;49.740;10.154;2023-05-10T03:58:49;12.90;85.80
74364;DHT22;62797;49.740;10.154;2023-05-10T04:01:15;12.90;85.20
74364;DHT22;62797;49.740;10.154;2023-05-10T04:03:40;12.90;86.50
74364;DHT22;62797;49.740;10.154;2023-05-10T04:06:07;12.90;86.60
74364;DHT22;62797;49.740;10.154;2023-05-10T04:08:34;12.90;87.50
74364;DHT22;62797;49.740;10.154;2023-05-10T04:11:11;12.90;87.20
74364;DHT22;62797;49.740;10.154;2023-05-10T04:13:37;12.90;87.90
74364;DHT22;62797;49.740;10.154;2023-05-10T04:16:03;12.90;88.00
74364;DHT22;62797;49.740;10.154;2023-05-10T04:18:30;12.90;87.40
74364;DHT22;62797;49.740;10.154;2023-05-10T04:20:56;12.90;87.70
74364;DHT22;62797;49.740;10.154;2023-05-10T04:23:21;12.90;87.50
74364;DHT22;62797;49.740;10.154;2023-05-10T04:25:47;12.90;86.00
74364;DHT22;62797;49.740;10.154;2023-05-10T04:28:12;12.90;86.50
74364;DHT22;62797;49.740;10.154;2023-05-10T04:30:38;12.90;84.90
74364;DHT22;62797;49.740;10.154;2023-05-10T04:33:04;12.80;86.30
74364;DHT22;62797;49.740;10.154;2023-05-10T04:35:29;12.80;85.20
74364;DHT22;62797;49.740;10.154;2023-05-10T04:37:55;12.80;85.90
74364;DHT22;62797;49.740;10.154;2023-05-10T04:40:21;12.90;87.10
74364;DHT22;62797;49.740;10.154;2023-05-10T04:42:47;12.90;86.80
74364;DHT22;62797;49.740;10.154;2023-05-10T04:45:12;12.90;86.10
74364;DHT22;62797;49.740;10.154;2023-05-10T04:47:40;12.90;86.40
74364;DHT22;62797;49.740;10.154;2023-05-10T04:50:06;12.90;85.70
74364;DHT22;62797;49.740;10.154;2023-05-10T04:52:32;12.90;87.00
74364;DHT22;62797;49.740;10.154;2023-05-10T04:54:57;12.90;87.10
74364;DHT22;62797;49.740;10.154;2023-05-10T04:57:23;13.00;87.40
74364;DHT22;62797;49.740;10.154;2023-05-10T04:59:48;13.00;88.50
74364;DHT22;62797;49.740;10.154;2023-05-10T05:02:14;13.10;87.10
74364;DHT22;62797;49.740;10.154;2023-05-10T05:04:40;13.10;87.60
74364;DHT22;62797;49.740;10.154;2023-05-10T05:07:05;13.20;86.80
74364;DHT22;62797;49.740;10.154;2023-05-10T05:09:31;13.20;86.50
74364;DHT22;62797;49.740;10.154;2023-05-10T05:12:00;13.20;87.00
74364;DHT22;62797;49.740;10.154;2023-05-10T05:14:25;13.20;87.40
74364;DHT22;62797;49.740;10.154;2023-05-10T05:16:52;13.30;88.00
74364;DHT22;62797;49.740;10.154;2023-05-10T05:19:17;13.30;86.90
74364;DHT22;62797;49.740;10.154;2023-05-10T05:21:43;13.30;87.30
74364;DHT22;62797;49.740;10.154;2023-05-10T05:24:09;13.40;87.80
74364;DHT22;62797;49.740;10.154;2023-05-10T05:26:35;13.40;86.00
74364;DHT22;62797;49.740;10.154;2023-05-10T05:29:01;13.30;84.30
74364;DHT22;62797;49.740;10.154;2023-05-10T05:31:28;13.30;85.30
74364;DHT22;62797;49.740;10.154;2023-05-10T05:33:53;13.40;86.60
74364;DHT22;62797;49.740;10.154;2023-05-10T05:36:19;13.40;86.20
74364;DHT22;62797;49.740;10.154;2023-05-10T05:38:45;13.40;86.40
74364;DHT22;62797;49.740;10.154;2023-05-10T05:41:10;13.50;85.70
74364;DHT22;62797;49.740;10.154;2023-05-10T05:43:36;13.50;83.70
74364;DHT22;62797;49.740;10.154;2023-05-10T05:46:02;13.50;82.10
74364;DHT22;62797;49.740;10.154;2023-05-10T05:48:29;13.60;83.80
74364;DHT22;62797;49.740;10.154;2023-05-10T05:50:55;13.60;83.10
74364;DHT22;62797;49.740;10.154;2023-05-10T05:53:24;13.70;84.60
74364;DHT22;62797;49.740;10.154;2023-05-10T05:55:54;13.70;84.10
74364;DHT22;62797;49.740;10.154;2023-05-10T05:58:20;13.70;84.50
74364;DHT22;62797;49.740;10.154;2023-05-10T06:00:46;13.70;85.00
74364;DHT22;62797;49.740;10.154;2023-05-10T06:03:11;13.70;82.40
74364;DHT22;62797;49.740;10.154;2023-05-10T06:05:37;13.70;83.80
74364;DHT22;62797;49.740;10.154;2023-05-10T06:08:03;13.60;81.10
74364;DHT22;62797;49.740;10.154;2023-05-10T06:10:29;13.60;80.00
74364;DHT22;62797;49.740;10.154;2023-05-10T06:12:55;13.60;80.50
74364;DHT22;62797;49.740;10.154;2023-05-10T06:15:21;13.70;82.60
74364;DHT22;62797;49.740;10.154;2023-05-10T06:17:49;13.70;81.20
74364;DHT22;62797;49.740;10.154;2023-05-10T06:20:15;13.70;80.40
74364;DHT22;62797;49.740;10.154;2023-05-10T06:22:41;13.70;82.10
74364;DHT22;62797;49.740;10.154;2023-05-10T06:25:08;13.80;83.40
74364;DHT22;62797;49.740;10.154;2023-05-10T06:27:34;13.90;84.10
74364;DHT22;62797;49.740;10.154;2023-05-10T06:30:00;13.90;79.00
74364;DHT22;62797;49.740;10.154;2023-05-10T06:32:25;13.90;82.50
74364;DHT22;62797;49.740;10.154;2023-05-10T06:34:51;14.00;82.70
74364;DHT22;62797;49.740;10.154;2023-05-10T06:37:17;13.90;80.40
74364;DHT22;62797;49.740;10.154;2023-05-10T06:39:43;13.90;79.80
74364;DHT22;62797;49.740;10.154;2023-05-10T06:42:11;13.80;79.20
74364;DHT22;62797;49.740;10.154;2023-05-10T06:44:36;13.90;79.20
74364;DHT22;62797;49.740;10.154;2023-05-10T06:47:02;13.80;77.60
74364;DHT22;62797;49.740;10.154;2023-05-10T06:49:28;13.80;77.80
74364;DHT22;62797;49.740;10.154;2023-05-10T06:51:55;13.80;78.60
74364;DHT22;62797;49.740;10.154;2023-05-10T06:54:20;13.90;80.40
74364;DHT22;62797;49.740;10.154;2023-05-10T06:56:46;14.00;78.60
74364;DHT22;62797;49.740;10.154;2023-05-10T06:59:12;14.10;80.20
74364;DHT22;62797;49.740;10.154;2023-05-10T07:01:39;14.10;79.00
74364;DHT22;62797;49.740;10.154;2023-05-10T07:04:05;14.20;79.50
74364;DHT22;62797;49.740;10.154;2023-05-10T07:06:30;14.10;76.10
74364;DHT22;62797;49.740;10.154;2023-05-10T07:08:56;14.20;77.20
74364;DHT22;62797;49.740;10.154;2023-05-10T07:11:23;14.20;78.00
74364;DHT22;62797;49.740;10.154;2023-05-10T07:13:49;14.30;75.70
74364;DHT22;62797;49.740;10.154;2023-05-10T07:16:14;14.40;76.30
74364;DHT22;62797;49.740;10.154;2023-05-10T07:18:40;14.40;78.10
74364;DHT22;62797;49.740;10.154;2023-05-10T07:21:06;14.40;74.40
74364;DHT22;62797;49.740;10.154;2023-05-10T07:23:31;14.40;76.20
74364;DHT22;62797;49.740;10.154;2023-05-10T07:25:57;14.40;77.40
74364;DHT22;62797;49.740;10.154;2023-05-10T07:28:23;14.40;75.30
74364;DHT22;62797;49.740;10.154;2023-05-10T07:30:51;14.40;74.40
74364;DHT22;62797;49.740;10.154;2023-05-10T07:33:17;14.40;70.70
74364;DHT22;62797;49.740;10.154;2023-05-10T07:35:43;14.40;72.40
74364;DHT22;62797;49.740;10.154;2023-05-10T07:38:09;14.30;72.30
74364;DHT22;62797;49.740;10.154;2023-05-10T07:40:36;14.40;70.80
74364;DHT22;62797;49.740;10.154;2023-05-10T07:43:02;14.30;70.20
74364;DHT22;62797;49.740;10.154;2023-05-10T07:45:28;14.30;68.60
74364;DHT22;62797;49.740;10.154;2023-05-10T07:47:54;14.40;70.20
74364;DHT22;62797;49.740;10.154;2023-05-10T07:50:19;14.30;69.30
74364;DHT22;62797;49.740;10.154;2023-05-10T07:52:46;14.40;71.80
74364;DHT22;62797;49.740;10.154;2023-05-10T07:55:12;14.40;71.20
74364;DHT22;62797;49.740;10.154;2023-05-10T07:57:38;14.40;72.90
74364;DHT22;62797;49.740;10.154;2023-05-10T08:00:04;14.40;69.90
74364;DHT22;62797;49.740;10.154;2023-05-10T08:02:38;14.50;73.20
74364;DHT22;62797;49.740;10.154;2023-05-10T08:05:04;14.60;72.80
74364;DHT22;62797;49.740;10.154;2023-05-10T08:07:30;14.60;71.30
74364;DHT22;62797;49.740;10.154;2023-05-10T08:09:56;14.70;69.70
74364;DHT22;62797;49.740;10.154;2023-05-10T08:12:22;14.70;71.80
74364;DHT22;62797;49.740;10.154;2023-05-10T08:14:47;15.00;71.50
74364;DHT22;62797;49.740;10.154;2023-05-10T08:17:13;15.10;69.40
74364;DHT22;62797;49.740;10.154;2023-05-10T08:19:38;15.20;68.90
74364;DHT22;62797;49.740;10.154;2023-05-10T08:22:04;15.10;62.40
74364;DHT22;62797;49.740;10.154;2023-05-10T08:24:30;15.10;60.00
74364;DHT22;62797;49.740;10.154;2023-05-10T08:26:56;15.20;65.10
74364;DHT22;62797;49.740;10.154;2023-05-10T08:29:22;15.20;64.50
74364;DHT22;62797;49.740;10.154;2023-05-10T08:31:48;15.30;64.00
74364;DHT22;62797;49.740;10.154;2023-05-10T08:34:14;15.30;63.10
74364;DHT22;62797;49.740;10.154;2023-05-10T08:36:42;15.40;66.00
74364;DHT22;62797;49.740;10.154;2023-05-10T08:39:08;15.60;62.20
74364;DHT22;62797;49.740;10.154;2023-05-10T08:41:36;15.60;58.80
74364;DHT22;62797;49.740;10.154;2023-05-10T08:44:04;15.70;61.70
74364;DHT22;62797;49.740;10.154;2023-05-10T08:46:33;15.80;62.50
74364;DHT22;62797;49.740;10.154;2023-05-10T08:49:02;16.00;59.90
74364;DHT22;62797;49.740;10.154;2023-05-10T08:51:35;16.00;60.60
74364;DHT22;62797;49.740;10.154;2023-05-10T08:54:02;15.90;56.10
74364;DHT22;62797;49.740;10.154;2023-05-10T08:56:28;15.80;55.60
74364;DHT22;62797;49.740;10.154;2023-05-10T08:58:54;15.60;57.10
74364;DHT22;62797;49.740;10.154;2023-05-10T09:01:21;15.70;62.00
74364;DHT22;62797;49.740;10.154;2023-05-10T09:03:47;15.70;61.80
74364;DHT22;62797;49.740;10.154;2023-05-10T09:06:13;15.70;64.10
74364;DHT22;62797;49.740;10.154;2023-05-10T09:08:41;15.80;58.50
74364;DHT22;62797;49.740;10.154;2023-05-10T09:11:08;15.90;59.40
74364;DHT22;62797;49.740;10.154;2023-05-10T09:13:35;16.10;64.30
74364;DHT22;62797;49.740;10.154;2023-05-10T09:16:02;16.30;60.10
74364;DHT22;62797;49.740;10.154;2023-05-10T09:18:28;16.50;54.30
74364;DHT22;62797;49.740;10.154;2023-05-10T09:20:54;16.60;57.70
74364;DHT22;62797;49.740;10.154;2023-05-10T09:23:20;16.60;55.50
74364;DHT22;62797;49.740;10.154;2023-05-10T09:25:45;16.70;54.90
74364;DHT22;62797;49.740;10.154;2023-05-10T09:28:12;16.90;54.50
74364;DHT22;62797;49.740;10.154;2023-05-10T09:30:37;16.80;47.00
74364;DHT22;62797;49.740;10.154;2023-05-10T09:33:03;16.90;48.60
74364;DHT22;62797;49.740;10.154;2023-05-10T09:35:31;17.10;49.00
74364;DHT22;62797;49.740;10.154;2023-05-10T09:38:03;17.40;48.40
74364;DHT22;62797;49.740;10.154;2023-05-10T09:40:32;17.20;43.90
74364;DHT22;62797;49.740;10.154;2023-05-10T09:43:08;17.00;45.20
74364;DHT22;62797;49.740;10.154;2023-05-10T09:45:34;17.00;45.30
74364;DHT22;62797;49.740;10.154;2023-05-10T09:48:02;17.20;46.50
74364;DHT22;62797;49.740;10.154;2023-05-10T09:50:29;17.00;42.00
74364;DHT22;62797;49.740;10.154;2023-05-10T09:52:56;17.10;44.10
74364;DHT22;62797;49.740;10.154;2023-05-10T09:58:02;17.20;41.70
74364;DHT22;62797;49.740;10.154;2023-05-10T10:00:28;17.30;46.20
74364;DHT22;62797;49.740;10.154;2023-05-10T10:03:00;17.30;43.50
74364;DHT22;62797;49.740;10.154;2023-05-10T10:05:30;17.40;45.70
74364;DHT22;62797;49.740;10.154;2023-05-10T10:07:57;17.30;40.30
74364;DHT22;62797;49.740;10.154;2023-05-10T10:10:24;17.30;43.20
74364;DHT22;62797;49.740;10.154;2023-05-10T10:12:51;17.50;44.50
74364;DHT22;62797;49.740;10.154;2023-05-10T10:15:16;17.50;39.30
74364;DHT22;62797;49.740;10.154;2023-05-10T10:17:43;17.50;39.60
74364;DHT22;62797;49.740;10.154;2023-05-10T10:20:09;17.60;43.00
74364;DHT22;62797;49.740;10.154;2023-05-10T10:22:35;17.60;40.70
74364;DHT22;62797;49.740;10.154;2023-05-10T10:25:02;17.60;42.40
74364;DHT22;62797;49.740;10.154;2023-05-10T10:27:45;17.90;38.60
74364;DHT22;62797;49.740;10.154;2023-05-10T10:30:16;17.90;38.60
74364;DHT22;62797;49.740;10.154;2023-05-10T10:35:36;17.70;36.80
74364;DHT22;62797;49.740;10.154;2023-05-10T10:38:02;17.80;39.20
74364;DHT22;62797;49.740;10.154;2023-05-10T10:40:33;18.00;38.00
74364;DHT22;62797;49.740;10.154;2023-05-10T10:43:25;18.00;38.50
74364;DHT22;62797;49.740;10.154;2023-05-10T10:48:50;17.80;40.70
74364;DHT22;62797;49.740;10.154;2023-05-10T10:51:19;17.80;37.90
74364;DHT22;62797;49.740;10.154;2023-05-10T10:53:47;17.60;38.20
74364;DHT22;62797;49.740;10.154;2023-05-10T10:56:13;17.60;40.00
74364;DHT22;62797;49.740;10.154;2023-05-10T10:58:40;17.70;41.10
74364;DHT22;62797;49.740;10.154;2023-05-10T11:01:17;17.70;40.00
74364;DHT22;62797;49.740;10.154;2023-05-10T11:06:35;17.90;37.90
74364;DHT22;62797;49.740;10.154;2023-05-10T11:09:08;17.90;37.40
74364;DHT22;62797;49.740;10.154;2023-05-10T11:11:35;18.20;38.10
74364;DHT22;62797;49.740;10.154;2023-05-10T11:14:06;18.50;39.20
74364;DHT22;62797;49.740;10.154;2023-05-10T11:16:43;18.50;34.60
74364;DHT22;62797;49.740;10.154;2023-05-10T11:19:13;18.10;35.30
74364;DHT22;62797;49.740;10.154;2023-05-10T11:24:31;18.50;36.50
74364;DHT22;62797;49.740;10.154;2023-05-10T11:26:57;18.50;37.50
74364;DHT22;62797;49.740;10.154;2023-05-10T11:29:22;18.60;35.90
74364;DHT22;62797;49.740;10.154;2023-05-10T11:31:49;18.20;35.20
74364;DHT22;62797;49.740;10.154;2023-05-10T11:34:30;18.40;36.10
74364;DHT22;62797;49.740;10.154;2023-05-10T11:36:59;18.60;34.80
74364;DHT22;62797;49.740;10.154;2023-05-10T11:39:27;18.50;33.90
74364;DHT22;62797;49.740;10.154;2023-05-10T11:41:53;18.10;32.50
74364;DHT22;62797;49.740;10.154;2023-05-10T11:44:19;18.30;35.40
74364;DHT22;62797;49.740;10.154;2023-05-10T11:46:45;18.50;35.20
74364;DHT22;62797;49.740;10.154;2023-05-10T11:49:11;18.60;36.50
74364;DHT22;62797;49.740;10.154;2023-05-10T11:51:38;18.70;35.00
74364;DHT22;62797;49.740;10.154;2023-05-10T11:54:10;18.50;31.30
74364;DHT22;62797;49.740;10.154;2023-05-10T11:56:40;18.60;32.90
74364;DHT22;62797;49.740;10.154;2023-05-10T11:59:06;18.60;33.90
74364;DHT22;62797;49.740;10.154;2023-05-10T12:01:33;18.70;33.80
74364;DHT22;62797;49.740;10.154;2023-05-10T12:03:59;18.80;33.30
74364;DHT22;62797;49.740;10.154;2023-05-10T12:06:31;18.70;31.80
74364;DHT22;62797;49.740;10.154;2023-05-10T12:08:58;18.90;33.50
74364;DHT22;62797;49.740;10.154;2023-05-10T12:11:28;19.00;34.20
74364;DHT22;62797;49.740;10.154;2023-05-10T12:13:55;18.80;35.10
74364;DHT22;62797;49.740;10.154;2023-05-10T12:16:26;18.90;34.00
74364;DHT22;62797;49.740;10.154;2023-05-10T12:18:55;18.90;34.10
74364;DHT22;62797;49.740;10.154;2023-05-10T12:21:21;18.90;32.30
74364;DHT22;62797;49.740;10.154;2023-05-10T12:23:52;18.90;34.70
74364;DHT22;62797;49.740;10.154;2023-05-10T12:26:22;18.90;33.20
74364;DHT22;62797;49.740;10.154;2023-05-10T12:28:47;19.00;30.20
74364;DHT22;62797;49.740;10.154;2023-05-10T12:31:13;18.80;29.70
74364;DHT22;62797;49.740;10.154;2023-05-10T12:33:41;18.90;31.50
74364;DHT22;62797;49.740;10.154;2023-05-10T12:36:11;18.80;32.50
74364;DHT22;62797;49.740;10.154;2023-05-10T12:38:39;18.70;33.10
74364;DHT22;62797;49.740;10.154;2023-05-10T12:41:06;18.80;33.70
74364;DHT22;62797;49.740;10.154;2023-05-10T12:43:33;18.90;34.20
74364;DHT22;62797;49.740;10.154;2023-05-10T12:46:04;19.00;34.50
74364;DHT22;62797;49.740;10.154;2023-05-10T12:48:29;18.80;32.40
74364;DHT22;62797;49.740;10.154;2023-05-10T12:50:56;19.00;34.90
74364;DHT22;62797;49.740;10.154;2023-05-10T12:53:22;19.30;33.30
74364;DHT22;62797;49.740;10.154;2023-05-10T12:55:48;19.30;33.10
74364;DHT22;62797;49.740;10.154;2023-05-10T12:58:13;19.20;33.50
74364;DHT22;62797;49.740;10.154;2023-05-10T13:00:39;19.10;32.80
74364;DHT22;62797;49.740;10.154;2023-05-10T13:03:05;19.20;32.30
74364;DHT22;62797;49.740;10.154;2023-05-10T13:05:34;19.20;31.30
74364;DHT22;62797;49.740;10.154;2023-05-10T13:07:59;18.80;31.60
74364;DHT22;62797;49.740;10.154;2023-05-10T13:10:25;18.50;32.00
74364;DHT22;62797;49.740;10.154;2023-05-10T13:12:51;18.00;32.50
74364;DHT22;62797;49.740;10.154;2023-05-10T13:15:17;17.90;33.60
74364;DHT22;62797;49.740;10.154;2023-05-10T13:17:42;17.70;33.90
74364;DHT22;62797;49.740;10.154;2023-05-10T13:20:09;17.40;37.30
74364;DHT22;62797;49.740;10.154;2023-05-10T13:22:35;17.30;38.60
74364;DHT22;62797;49.740;10.154;2023-05-10T13:25:01;17.20;39.00
74364;DHT22;62797;49.740;10.154;2023-05-10T13:27:29;16.90;41.50
74364;DHT22;62797;49.740;10.154;2023-05-10T13:29:55;16.80;44.10
74364;DHT22;62797;49.740;10.154;2023-05-10T13:32:20;16.70;45.60
74364;DHT22;62797;49.740;10.154;2023-05-10T13:34:46;16.40;46.80
74364;DHT22;62797;49.740;10.154;2023-05-10T13:37:12;16.20;48.60
74364;DHT22;62797;49.740;10.154;2023-05-10T13:39:37;16.10;49.90
74364;DHT22;62797;49.740;10.154;2023-05-10T13:42:03;15.90;51.10
74364;DHT22;62797;49.740;10.154;2023-05-10T13:44:29;15.90;50.60
74364;DHT22;62797;49.740;10.154;2023-05-10T13:46:56;15.80;51.90
74364;DHT22;62797;49.740;10.154;2023-05-10T13:49:21;15.60;53.40
74364;DHT22;62797;49.740;10.154;2023-05-10T13:51:47;15.70;53.30
74364;DHT22;62797;49.740;10.154;2023-05-10T13:54:13;15.30;54.80
74364;DHT22;62797;49.740;10.154;2023-05-10T13:56:39;15.30;55.90
74364;DHT22;62797;49.740;10.154;2023-05-10T13:59:06;15.30;55.80
74364;DHT22;62797;49.740;10.154;2023-05-10T14:01:33;15.20;56.80
74364;DHT22;62797;49.740;10.154;2023-05-10T14:03:59;15.20;56.90
74364;DHT22;62797;49.740;10.154;2023-05-10T14:06:25;15.00;58.20
74364;DHT22;62797;49.740;10.154;2023-05-10T14:08:50;15.10;57.70
74364;DHT22;62797;49.740;10.154;2023-05-10T14:11:16;15.20;57.90
74364;DHT22;62797;49.740;10.154;2023-05-10T14:13:41;15.20;57.20
74364;DHT22;62797;49.740;10.154;2023-05-10T14:16:07;15.00;59.00
74364;DHT22;62797;49.740;10.154;2023-05-10T14:18:33;15.10;59.20
74364;DHT22;62797;49.740;10.154;2023-05-10T14:20:58;15.30;58.70
74364;DHT22;62797;49.740;10.154;2023-05-10T14:23:24;15.20;57.80
74364;DHT22;62797;49.740;10.154;2023-05-10T14:25:51;15.20;58.10
74364;DHT22;62797;49.740;10.154;2023-05-10T14:28:17;15.10;58.90
74364;DHT22;62797;49.740;10.154;2023-05-10T14:30:43;15.10;59.50
74364;DHT22;62797;49.740;10.154;2023-05-10T14:33:09;15.10;59.00
74364;DHT22;62797;49.740;10.154;2023-05-10T14:35:35;15.10;59.70
74364;DHT22;62797;49.740;10.154;2023-05-10T14:38:02;15.20;59.50
74364;DHT22;62797;49.740;10.154;2023-05-10T14:40:28;15.30;59.40
74364;DHT22;62797;49.740;10.154;2023-05-10T14:42:54;15.40;59.30
74364;DHT22;62797;49.740;10.154;2023-05-10T14:45:20;15.50;59.20
74364;DHT22;62797;49.740;10.154;2023-05-10T14:47:46;15.50;59.60
74364;DHT22;62797;49.740;10.154;2023-05-10T14:50:12;15.50;58.70
74364;DHT22;62797;49.740;10.154;2023-05-10T14:52:37;15.60;58.50
74364;DHT22;62797;49.740;10.154;2023-05-10T14:55:03;15.80;57.40
74364;DHT22;62797;49.740;10.154;2023-05-10T14:57:29;15.90;56.70
74364;DHT22;62797;49.740;10.154;2023-05-10T14:59:55;15.90;56.90
74364;DHT22;62797;49.740;10.154;2023-05-10T15:02:21;15.90;56.50
74364;DHT22;62797;49.740;10.154;2023-05-10T15:04:47;15.80;56.40
74364;DHT22;62797;49.740;10.154;2023-05-10T15:07:13;15.80;56.90
74364;DHT22;62797;49.740;10.154;2023-05-10T15:09:41;15.80;55.90
74364;DHT22;62797;49.740;10.154;2023-05-10T15:12:07;15.90;56.50
74364;DHT22;62797;49.740;10.154;2023-05-10T15:14:32;16.00;56.40
74364;DHT22;62797;49.740;10.154;2023-05-10T15:16:59;16.00;55.90
74364;DHT22;62797;49.740;10.154;2023-05-10T15:19:25;16.20;55.20
74364;DHT22;62797;49.740;10.154;2023-05-10T15:21:50;16.20;53.30
74364;DHT22;62797;49.740;10.154;2023-05-10T15:24:19;16.20;54.10
74364;DHT22;62797;49.740;10.154;2023-05-10T15:26:44;16.30;54.40
74364;DHT22;62797;49.740;10.154;2023-05-10T15:29:10;16.40;54.40
74364;DHT22;62797;49.740;10.154;2023-05-10T15:31:35;16.50;52.30
74364;DHT22;62797;49.740;10.154;2023-05-10T15:34:01;16.50;51.90
74364;DHT22;62797;49.740;10.154;2023-05-10T15:36:27;16.50;51.20
74364;DHT22;62797;49.740;10.154;2023-05-10T15:38:54;16.30;52.10
74364;DHT22;62797;49.740;10.154;2023-05-10T15:41:20;16.40;50.60
74364;DHT22;62797;49.740;10.154;2023-05-10T15:43:46;16.40;51.20
74364;DHT22;62797;49.740;10.154;2023-05-10T15:46:11;16.40;52.50
74364;DHT22;62797;49.740;10.154;2023-05-10T15:48:37;16.60;52.10
74364;DHT22;62797;49.740;10.154;2023-05-10T15:51:04;16.70;51.90
74364;DHT22;62797;49.740;10.154;2023-05-10T15:53:30;16.70;51.00